sensor_id;sensor_type;location;lat;lon;timestamp;pressure;altitude;pressure_sealevel;temperature;humidity
9822;BME280;4950;46.042;14.472;2023-06-19T00:01:56;97874.38;;;20.21;46.59
9822;BME280;4950;46.042;14.472;2023-06-19T00:04:22;97879.66;;;20.21;46.77
9822;BME280;4950;46.042;14.472;2023-06-19T00:06:49;97867.59;;;20.25;45.67
9822;BME280;4950;46.042;14.472;2023-06-19T00:09:16;97876.00;;;20.22;44.37
9822;BME280;4950;46.042;14.472;2023-06-19T00:11:43;97874.63;;;20.19;44.04
9822;BME280;4950;46.042;14.472;2023-06-19T00:14:09;97879.09;;;20.19;44.06
9822;BME280;4950;46.042;14.472;2023-06-19T00:16:37;97879.09;;;20.19;43.87
9822;BME280;4950;46.042;14.472;2023-06-19T00:19:05;97880.16;;;20.18;43.75
9822;BME280;4950;46.042;14.472;2023-06-19T00:21:31;97882.53;;;20.19;44.66
9822;BME280;4950;46.042;14.472;2023-06-19T00:23:58;97884.94;;;20.21;45.10
9822;BME280;4950;46.042;14.472;2023-06-19T00:26:25;97883.13;;;20.21;45.04
9822;BME280;4950;46.042;14.472;2023-06-19T00:28:51;97880.78;;;20.25;44.86
9822;BME280;4950;46.042;14.472;2023-06-19T00:31:18;97875.84;;;20.28;44.70
9822;BME280;4950;46.042;14.472;2023-06-19T00:33:46;97868.81;;;20.34;45.06
9822;BME280;4950;46.042;14.472;2023-06-19T00:36:15;97876.84;;;20.39;45.87
9822;BME280;4950;46.042;14.472;2023-06-19T00:38:45;97877.72;;;20.45;46.46
9822;BME280;4950;46.042;14.472;2023-06-19T00:41:11;97868.44;;;20.42;46.35
9822;BME280;4950;46.042;14.472;2023-06-19T00:43:38;97873.00;;;20.47;47.01
9822;BME280;4950;46.042;14.472;2023-06-19T00:46:05;97871.06;;;20.42;47.57
9822;BME280;4950;46.042;14.472;2023-06-19T00:48:32;97875.16;;;20.33;48.42
9822;BME280;4950;46.042;14.472;2023-06-19T00:51:01;97875.94;;;20.34;49.28
9822;BME280;4950;46.042;14.472;2023-06-19T00:53:28;97877.69;;;20.28;49.84
9822;BME280;4950;46.042;14.472;2023-06-19T00:55:57;97877.69;;;20.28;50.55
9822;BME280;4950;46.042;14.472;2023-06-19T00:58:24;97885.28;;;20.24;50.60
9822;BME280;4950;46.042;14.472;2023-06-19T01:00:50;97884.59;;;20.17;50.46
9822;BME280;4950;46.042;14.472;2023-06-19T01:03:17;97879.59;;;20.16;50.64
9822;BME280;4950;46.042;14.472;2023-06-19T01:05:46;97874.88;;;20.18;50.77
9822;BME280;4950;46.042;14.472;2023-06-19T01:08:26;97876.47;;;20.19;50.78
9822;BME280;4950;46.042;14.472;2023-06-19T01:11:00;97881.09;;;20.11;50.92
9822;BME280;4950;46.042;14.472;2023-06-19T01:13:33;97873.09;;;20.06;51.20
9822;BME280;4950;46.042;14.472;2023-06-19T01:16:01;97871.97;;;20.02;51.04
9822;BME280;4950;46.042;14.472;2023-06-19T01:18:29;97879.31;;;20.00;51.27
9822;BME280;4950;46.042;14.472;2023-06-19T01:20:56;97886.66;;;19.98;51.34
9822;BME280;4950;46.042;14.472;2023-06-19T01:23:24;97885.03;;;19.97;51.58
9822;BME280;4950;46.042;14.472;2023-06-19T01:25:51;97884.81;;;19.99;51.72
9822;BME280;4950;46.042;14.472;2023-06-19T01:28:18;97878.78;;;19.86;52.05
9822;BME280;4950;46.042;14.472;2023-06-19T01:30:44;97877.97;;;19.86;52.11
9822;BME280;4950;46.042;14.472;2023-06-19T01:33:17;97876.50;;;19.78;52.49
9822;BME280;4950;46.042;14.472;2023-06-19T01:35:47;97879.94;;;19.79;52.85
9822;BME280;4950;46.042;14.472;2023-06-19T01:38:16;97875.69;;;19.78;52.94
9822;BME280;4950;46.042;14.472;2023-06-19T01:40:44;97875.13;;;19.76;53.45
9822;BME280;4950;46.042;14.472;2023-06-19T01:43:12;97883.03;;;19.64;53.66
9822;BME280;4950;46.042;14.472;2023-06-19T01:45:39;97883.19;;;19.45;54.63
9822;BME280;4950;46.042;14.472;2023-06-19T01:48:06;97884.00;;;19.34;55.34
9822;BME280;4950;46.042;14.472;2023-06-19T01:50:33;97890.06;;;19.34;55.79
9822;BME280;4950;46.042;14.472;2023-06-19T01:53:00;97889.47;;;19.44;56.07
9822;BME280;4950;46.042;14.472;2023-06-19T01:55:27;97876.78;;;19.41;56.18
9822;BME280;4950;46.042;14.472;2023-06-19T01:57:55;97877.09;;;19.45;56.40
9822;BME280;4950;46.042;14.472;2023-06-19T02:00:22;97876.09;;;19.46;56.77
9822;BME280;4950;46.042;14.472;2023-06-19T02:02:48;97883.22;;;19.33;56.73
9822;BME280;4950;46.042;14.472;2023-06-19T02:05:15;97871.28;;;19.31;57.08
9822;BME280;4950;46.042;14.472;2023-06-19T02:07:42;97872.09;;;19.31;57.11
9822;BME280;4950;46.042;14.472;2023-06-19T02:10:09;97875.19;;;19.28;57.17
9822;BME280;4950;46.042;14.472;2023-06-19T02:12:35;97876.19;;;19.27;57.66
9822;BME280;4950;46.042;14.472;2023-06-19T02:15:04;97871.41;;;19.24;57.46
9822;BME280;4950;46.042;14.472;2023-06-19T02:17:31;97877.13;;;19.21;58.07
9822;BME280;4950;46.042;14.472;2023-06-19T02:19:58;97880.81;;;19.20;57.60
9822;BME280;4950;46.042;14.472;2023-06-19T02:22:25;97878.84;;;19.16;57.03
9822;BME280;4950;46.042;14.472;2023-06-19T02:24:51;97882.88;;;19.18;57.13
9822;BME280;4950;46.042;14.472;2023-06-19T02:27:18;97875.53;;;19.20;57.17
9822;BME280;4950;46.042;14.472;2023-06-19T02:29:44;97874.28;;;19.23;57.17
9822;BME280;4950;46.042;14.472;2023-06-19T02:32:12;97873.94;;;19.19;57.32
9822;BME280;4950;46.042;14.472;2023-06-19T02:34:39;97874.63;;;19.14;57.71
9822;BME280;4950;46.042;14.472;2023-06-19T02:37:06;97887.78;;;19.03;58.06
9822;BME280;4950;46.042;14.472;2023-06-19T02:39:33;97877.13;;;18.98;58.24
9822;BME280;4950;46.042;14.472;2023-06-19T02:42:00;97877.25;;;19.03;58.25
9822;BME280;4950;46.042;14.472;2023-06-19T02:44:26;97880.25;;;19.06;58.10
9822;BME280;4950;46.042;14.472;2023-06-19T02:46:53;97887.56;;;19.04;58.47
9822;BME280;4950;46.042;14.472;2023-06-19T02:49:21;97879.09;;;19.02;58.37
9822;BME280;4950;46.042;14.472;2023-06-19T02:51:47;97882.97;;;19.00;58.38
9822;BME280;4950;46.042;14.472;2023-06-19T02:54:14;97883.88;;;18.93;58.73
9822;BME280;4950;46.042;14.472;2023-06-19T02:56:41;97880.47;;;18.93;59.18
9822;BME280;4950;46.042;14.472;2023-06-19T02:59:07;97882.50;;;18.91;59.33
9822;BME280;4950;46.042;14.472;2023-06-19T03:01:34;97877.69;;;18.88;59.39
9822;BME280;4950;46.042;14.472;2023-06-19T03:04:01;97878.59;;;18.82;59.56
9822;BME280;4950;46.042;14.472;2023-06-19T03:06:29;97883.50;;;18.78;59.78
9822;BME280;4950;46.042;14.472;2023-06-19T03:08:56;97884.09;;;18.80;59.87
9822;BME280;4950;46.042;14.472;2023-06-19T03:11:22;97884.28;;;18.79;59.80
9822;BME280;4950;46.042;14.472;2023-06-19T03:13:50;97895.50;;;18.74;59.93
9822;BME280;4950;46.042;14.472;2023-06-19T03:16:17;97903.38;;;18.74;60.17
9822;BME280;4950;46.042;14.472;2023-06-19T03:18:44;97902.38;;;18.75;60.18
9822;BME280;4950;46.042;14.472;2023-06-19T03:21:11;97913.47;;;18.77;60.06
9822;BME280;4950;46.042;14.472;2023-06-19T03:23:39;97917.22;;;18.69;60.52
9822;BME280;4950;46.042;14.472;2023-06-19T03:26:07;97908.19;;;18.65;60.72
9822;BME280;4950;46.042;14.472;2023-06-19T03:28:34;97912.75;;;18.70;60.64
9822;BME280;4950;46.042;14.472;2023-06-19T03:31:00;97917.22;;;18.69;60.72
9822;BME280;4950;46.042;14.472;2023-06-19T03:33:27;97916.41;;;18.69;60.51
9822;BME280;4950;46.042;14.472;2023-06-19T03:35:53;97913.75;;;18.69;60.83
9822;BME280;4950;46.042;14.472;2023-06-19T03:38:20;97914.81;;;18.68;61.00
9822;BME280;4950;46.042;14.472;2023-06-19T03:40:48;97919.59;;;18.59;61.28
9822;BME280;4950;46.042;14.472;2023-06-19T03:43:15;97925.06;;;18.58;61.45
9822;BME280;4950;46.042;14.472;2023-06-19T03:45:41;97918.66;;;18.53;61.61
9822;BME280;4950;46.042;14.472;2023-06-19T03:48:08;97915.91;;;18.48;61.47
9822;BME280;4950;46.042;14.472;2023-06-19T03:50:34;97916.00;;;18.42;62.08
9822;BME280;4950;46.042;14.472;2023-06-19T03:53:02;97915.31;;;18.46;62.17
9822;BME280;4950;46.042;14.472;2023-06-19T03:55:28;97925.25;;;18.44;62.28
9822;BME280;4950;46.042;14.472;2023-06-19T03:57:56;97916.88;;;18.35;62.23
9822;BME280;4950;46.042;14.472;2023-06-19T04:00:23;97926.94;;;18.39;62.49
9822;BME280;4950;46.042;14.472;2023-06-19T04:02:49;97914.03;;;18.37;62.76
9822;BME280;4950;46.042;14.472;2023-06-19T04:05:16;97921.25;;;18.42;63.11
9822;BME280;4950;46.042;14.472;2023-06-19T04:07:43;97923.31;;;18.40;62.90
9822;BME280;4950;46.042;14.472;2023-06-19T04:10:09;97925.69;;;18.41;63.11
9822;BME280;4950;46.042;14.472;2023-06-19T04:12:36;97928.69;;;18.45;63.33
9822;BME280;4950;46.042;14.472;2023-06-19T04:15:05;97915.09;;;18.48;63.35
9822;BME280;4950;46.042;14.472;2023-06-19T04:17:32;97918.38;;;18.43;63.42
9822;BME280;4950;46.042;14.472;2023-06-19T04:19:58;97918.38;;;18.43;63.46
9822;BME280;4950;46.042;14.472;2023-06-19T04:22:25;97921.59;;;18.45;63.46
9822;BME280;4950;46.042;14.472;2023-06-19T04:24:52;97925.97;;;18.51;63.66
9822;BME280;4950;46.042;14.472;2023-06-19T04:27:18;97926.78;;;18.52;64.15
9822;BME280;4950;46.042;14.472;2023-06-19T04:29:45;97922.78;;;18.49;63.89
9822;BME280;4950;46.042;14.472;2023-06-19T04:32:13;97922.78;;;18.49;63.86
9822;BME280;4950;46.042;14.472;2023-06-19T04:34:41;97926.78;;;18.52;64.00
9822;BME280;4950;46.042;14.472;2023-06-19T04:37:11;97920.16;;;18.49;64.70
9822;BME280;4950;46.042;14.472;2023-06-19T04:39:38;97931.13;;;18.58;64.98
9822;BME280;4950;46.042;14.472;2023-06-19T04:42:05;97932.94;;;18.46;65.11
9822;BME280;4950;46.042;14.472;2023-06-19T04:44:32;97931.53;;;18.43;65.75
9822;BME280;4950;46.042;14.472;2023-06-19T04:46:59;97925.03;;;18.46;65.52
9822;BME280;4950;46.042;14.472;2023-06-19T04:49:29;97937.28;;;18.52;65.57
9822;BME280;4950;46.042;14.472;2023-06-19T04:51:56;97928.38;;;18.53;65.41
9822;BME280;4950;46.042;14.472;2023-06-19T04:54:23;97943.34;;;18.52;65.42
9822;BME280;4950;46.042;14.472;2023-06-19T04:56:49;97938.66;;;18.54;65.73
9822;BME280;4950;46.042;14.472;2023-06-19T04:59:16;97942.44;;;18.59;65.69
9822;BME280;4950;46.042;14.472;2023-06-19T05:01:43;97931.03;;;18.65;65.92
9822;BME280;4950;46.042;14.472;2023-06-19T05:04:10;97938.03;;;18.71;65.82
9822;BME280;4950;46.042;14.472;2023-06-19T05:06:38;97938.63;;;18.73;65.70
9822;BME280;4950;46.042;14.472;2023-06-19T05:09:05;97937.34;;;18.75;65.24
9822;BME280;4950;46.042;14.472;2023-06-19T05:11:31;97944.44;;;18.75;65.45
9822;BME280;4950;46.042;14.472;2023-06-19T05:13:58;97937.13;;;18.77;65.98
9822;BME280;4950;46.042;14.472;2023-06-19T05:16:25;97946.00;;;18.83;66.08
9822;BME280;4950;46.042;14.472;2023-06-19T05:18:51;97948.88;;;18.93;66.28
9822;BME280;4950;46.042;14.472;2023-06-19T05:21:18;97944.72;;;18.85;66.55
9822;BME280;4950;46.042;14.472;2023-06-19T05:23:46;97943.09;;;18.84;66.67
9822;BME280;4950;46.042;14.472;2023-06-19T05:26:15;97939.25;;;18.87;66.54
9822;BME280;4950;46.042;14.472;2023-06-19T05:28:42;97937.53;;;18.92;66.39
9822;BME280;4950;46.042;14.472;2023-06-19T05:31:09;97937.44;;;18.99;66.17
9822;BME280;4950;46.042;14.472;2023-06-19T05:33:35;97941.69;;;19.00;65.77
9822;BME280;4950;46.042;14.472;2023-06-19T05:36:02;97941.56;;;19.07;65.85
9822;BME280;4950;46.042;14.472;2023-06-19T05:38:29;97942.47;;;19.12;65.49
9822;BME280;4950;46.042;14.472;2023-06-19T05:40:57;97935.94;;;19.15;65.76
9822;BME280;4950;46.042;14.472;2023-06-19T05:43:23;97941.13;;;19.22;66.04
9822;BME280;4950;46.042;14.472;2023-06-19T05:45:50;97938.59;;;19.27;66.31
9822;BME280;4950;46.042;14.472;2023-06-19T05:48:17;97945.34;;;19.34;66.18
9822;BME280;4950;46.042;14.472;2023-06-19T05:50:44;97948.91;;;19.40;65.96
9822;BME280;4950;46.042;14.472;2023-06-19T05:53:10;97937.91;;;19.43;65.81
9822;BME280;4950;46.042;14.472;2023-06-19T05:55:37;97937.44;;;19.46;64.85
9822;BME280;4950;46.042;14.472;2023-06-19T05:58:05;97935.72;;;19.52;64.37
9822;BME280;4950;46.042;14.472;2023-06-19T06:00:32;97939.97;;;19.53;63.61
9822;BME280;4950;46.042;14.472;2023-06-19T06:02:58;97933.78;;;19.59;62.91
9822;BME280;4950;46.042;14.472;2023-06-19T06:05:26;97934.34;;;19.61;63.41
9822;BME280;4950;46.042;14.472;2023-06-19T06:07:53;97932.38;;;19.68;63.47
9822;BME280;4950;46.042;14.472;2023-06-19T06:10:20;97931.50;;;19.75;63.21
9822;BME280;4950;46.042;14.472;2023-06-19T06:12:47;97931.03;;;19.78;63.07
9822;BME280;4950;46.042;14.472;2023-06-19T06:15:16;97937.19;;;19.83;62.69
9822;BME280;4950;46.042;14.472;2023-06-19T06:17:43;97931.47;;;19.86;61.66
9822;BME280;4950;46.042;14.472;2023-06-19T06:20:10;97936.38;;;19.95;61.12
9822;BME280;4950;46.042;14.472;2023-06-19T06:22:37;97934.09;;;19.98;60.59
9822;BME280;4950;46.042;14.472;2023-06-19T06:25:05;97932.56;;;20.02;59.77
9822;BME280;4950;46.042;14.472;2023-06-19T06:27:31;97925.56;;;20.08;55.89
9822;BME280;4950;46.042;14.472;2023-06-19T06:29:58;97929.69;;;20.16;55.75
9822;BME280;4950;46.042;14.472;2023-06-19T06:32:27;97925.59;;;20.25;56.57
9822;BME280;4950;46.042;14.472;2023-06-19T06:34:56;97913.66;;;20.34;58.34
9822;BME280;4950;46.042;14.472;2023-06-19T06:37:22;97912.47;;;20.42;59.08
9822;BME280;4950;46.042;14.472;2023-06-19T06:39:49;97919.22;;;20.49;59.03
9822;BME280;4950;46.042;14.472;2023-06-19T06:42:16;97916.19;;;20.58;59.58
9822;BME280;4950;46.042;14.472;2023-06-19T06:44:42;97916.31;;;20.63;59.23
9822;BME280;4950;46.042;14.472;2023-06-19T06:47:09;97910.63;;;20.71;58.20
9822;BME280;4950;46.042;14.472;2023-06-19T06:49:37;97912.31;;;20.77;57.93
9822;BME280;4950;46.042;14.472;2023-06-19T06:52:04;97905.03;;;20.84;57.18
9822;BME280;4950;46.042;14.472;2023-06-19T06:54:31;97910.72;;;20.93;57.33
9822;BME280;4950;46.042;14.472;2023-06-19T06:56:58;97900.78;;;21.00;57.57
9822;BME280;4950;46.042;14.472;2023-06-19T06:59:25;97903.81;;;21.09;56.80
9822;BME280;4950;46.042;14.472;2023-06-19T07:01:52;97907.09;;;21.16;56.64
9822;BME280;4950;46.042;14.472;2023-06-19T07:04:19;97907.75;;;21.23;56.03
9822;BME280;4950;46.042;14.472;2023-06-19T07:06:47;97909.41;;;21.29;53.64
9822;BME280;4950;46.042;14.472;2023-06-19T07:09:14;97903.78;;;21.43;52.40
9822;BME280;4950;46.042;14.472;2023-06-19T07:11:40;97911.13;;;21.58;50.97
9822;BME280;4950;46.042;14.472;2023-06-19T07:14:07;97903.59;;;21.66;49.70
9822;BME280;4950;46.042;14.472;2023-06-19T07:16:34;97904.50;;;21.77;49.56
9822;BME280;4950;46.042;14.472;2023-06-19T07:19:00;97905.97;;;21.90;48.96
9822;BME280;4950;46.042;14.472;2023-06-19T07:21:27;97904.50;;;21.99;49.00
9822;BME280;4950;46.042;14.472;2023-06-19T07:23:56;97908.00;;;22.05;48.78
9822;BME280;4950;46.042;14.472;2023-06-19T07:26:23;97905.97;;;22.12;48.52
9822;BME280;4950;46.042;14.472;2023-06-19T07:28:50;97905.50;;;22.20;49.12
9822;BME280;4950;46.042;14.472;2023-06-19T07:31:16;97900.84;;;22.27;48.25
9822;BME280;4950;46.042;14.472;2023-06-19T07:33:43;97900.09;;;22.32;48.62
9822;BME280;4950;46.042;14.472;2023-06-19T07:36:10;97891.19;;;22.38;48.84
9822;BME280;4950;46.042;14.472;2023-06-19T07:38:39;97891.47;;;22.42;49.28
9822;BME280;4950;46.042;14.472;2023-06-19T07:41:07;97896.28;;;22.45;49.13
9822;BME280;4950;46.042;14.472;2023-06-19T07:43:35;97896.88;;;22.52;49.00
9822;BME280;4950;46.042;14.472;2023-06-19T07:46:02;97888.22;;;22.62;48.44
9822;BME280;4950;46.042;14.472;2023-06-19T07:48:28;97889.06;;;22.67;48.39
9822;BME280;4950;46.042;14.472;2023-06-19T07:50:55;97892.03;;;22.76;48.00
9822;BME280;4950;46.042;14.472;2023-06-19T07:53:22;97894.47;;;22.83;47.99
9822;BME280;4950;46.042;14.472;2023-06-19T07:55:48;97890.53;;;22.91;46.97
9822;BME280;4950;46.042;14.472;2023-06-19T07:58:16;97892.00;;;23.03;45.56
9822;BME280;4950;46.042;14.472;2023-06-19T08:00:43;97886.50;;;23.15;45.48
9822;BME280;4950;46.042;14.472;2023-06-19T08:03:10;97888.19;;;23.32;44.75
9822;BME280;4950;46.042;14.472;2023-06-19T08:05:36;97882.97;;;23.42;44.53
9822;BME280;4950;46.042;14.472;2023-06-19T08:08:03;97883.81;;;23.53;44.57
9822;BME280;4950;46.042;14.472;2023-06-19T08:10:30;97882.25;;;23.62;43.47
9822;BME280;4950;46.042;14.472;2023-06-19T08:12:57;97888.66;;;23.71;43.76
9822;BME280;4950;46.042;14.472;2023-06-19T08:15:25;97884.97;;;23.77;44.31
9822;BME280;4950;46.042;14.472;2023-06-19T08:17:52;97878.41;;;23.90;43.68
9822;BME280;4950;46.042;14.472;2023-06-19T08:20:18;97882.44;;;24.03;41.88
9822;BME280;4950;46.042;14.472;2023-06-19T08:22:46;97881.16;;;24.16;41.69
9822;BME280;4950;46.042;14.472;2023-06-19T08:25:12;97879.03;;;24.23;41.29
9822;BME280;4950;46.042;14.472;2023-06-19T08:27:39;97881.16;;;24.31;41.70
9822;BME280;4950;46.042;14.472;2023-06-19T08:30:06;97884.91;;;24.46;41.10
9822;BME280;4950;46.042;14.472;2023-06-19T08:32:34;97880.66;;;24.55;41.42
9822;BME280;4950;46.042;14.472;2023-06-19T08:35:01;97881.22;;;24.62;41.54
9822;BME280;4950;46.042;14.472;2023-06-19T08:37:28;97880.66;;;24.70;43.31
9822;BME280;4950;46.042;14.472;2023-06-19T08:39:54;97887.84;;;24.75;42.93
9822;BME280;4950;46.042;14.472;2023-06-19T08:42:22;97888.13;;;24.78;42.90
9822;BME280;4950;46.042;14.472;2023-06-19T08:44:49;97887.59;;;24.87;43.72
9822;BME280;4950;46.042;14.472;2023-06-19T08:47:15;97875.59;;;24.99;42.32
9822;BME280;4950;46.042;14.472;2023-06-19T08:49:44;97871.88;;;25.11;42.99
9822;BME280;4950;46.042;14.472;2023-06-19T08:52:11;97864.44;;;25.18;42.99
9822;BME280;4950;46.042;14.472;2023-06-19T08:54:38;97865.22;;;25.29;42.71
9822;BME280;4950;46.042;14.472;2023-06-19T08:57:09;97865.69;;;25.46;44.43
9822;BME280;4950;46.042;14.472;2023-06-19T08:59:36;97861.41;;;25.60;43.21
9822;BME280;4950;46.042;14.472;2023-06-19T09:02:02;97872.53;;;25.68;43.77
9822;BME280;4950;46.042;14.472;2023-06-19T09:04:29;97864.53;;;25.73;42.65
9822;BME280;4950;46.042;14.472;2023-06-19T09:06:59;97857.59;;;25.82;42.65
9822;BME280;4950;46.042;14.472;2023-06-19T09:09:26;97857.53;;;25.97;42.79
9822;BME280;4950;46.042;14.472;2023-06-19T09:12:00;97858.78;;;26.05;44.25
9822;BME280;4950;46.042;14.472;2023-06-19T09:14:34;97849.94;;;26.20;43.29
9822;BME280;4950;46.042;14.472;2023-06-19T09:17:02;97853.84;;;26.33;42.24
9822;BME280;4950;46.042;14.472;2023-06-19T09:19:29;97855.34;;;26.44;42.16
9822;BME280;4950;46.042;14.472;2023-06-19T09:22:02;97853.91;;;26.57;42.03
9822;BME280;4950;46.042;14.472;2023-06-19T09:24:37;97848.59;;;26.62;42.53
9822;BME280;4950;46.042;14.472;2023-06-19T09:27:07;97850.13;;;26.68;43.34
9822;BME280;4950;46.042;14.472;2023-06-19T09:29:38;97853.19;;;26.81;41.66
9822;BME280;4950;46.042;14.472;2023-06-19T09:32:18;97853.69;;;26.88;41.29
9822;BME280;4950;46.042;14.472;2023-06-19T09:34:45;97846.94;;;26.95;42.45
9822;BME280;4950;46.042;14.472;2023-06-19T09:37:13;97852.16;;;27.06;41.23
9822;BME280;4950;46.042;14.472;2023-06-19T09:39:41;97854.28;;;27.09;41.14
9822;BME280;4950;46.042;14.472;2023-06-19T09:42:08;97851.03;;;27.12;41.16
9822;BME280;4950;46.042;14.472;2023-06-19T09:44:39;97852.91;;;27.11;41.69
9822;BME280;4950;46.042;14.472;2023-06-19T09:47:14;97841.13;;;27.17;41.75
9822;BME280;4950;46.042;14.472;2023-06-19T09:49:48;97843.72;;;27.23;41.09
9822;BME280;4950;46.042;14.472;2023-06-19T09:52:17;97847.44;;;27.27;40.82
9822;BME280;4950;46.042;14.472;2023-06-19T09:54:47;97843.13;;;27.31;41.25
9822;BME280;4950;46.042;14.472;2023-06-19T09:57:15;97847.84;;;27.39;41.58
9822;BME280;4950;46.042;14.472;2023-06-19T09:59:44;97846.69;;;27.45;40.70
9822;BME280;4950;46.042;14.472;2023-06-19T10:02:12;97857.19;;;27.61;40.09
9822;BME280;4950;46.042;14.472;2023-06-19T10:04:45;97843.47;;;27.67;40.42
9822;BME280;4950;46.042;14.472;2023-06-19T10:07:18;97843.88;;;27.80;40.74
9822;BME280;4950;46.042;14.472;2023-06-19T10:09:56;97843.75;;;27.90;39.31
9822;BME280;4950;46.042;14.472;2023-06-19T10:12:37;97848.72;;;27.96;40.44
9822;BME280;4950;46.042;14.472;2023-06-19T10:15:16;97852.34;;;28.06;40.35
9822;BME280;4950;46.042;14.472;2023-06-19T10:17:46;97844.75;;;28.13;39.39
9822;BME280;4950;46.042;14.472;2023-06-19T10:20:21;97843.31;;;28.21;39.11
9822;BME280;4950;46.042;14.472;2023-06-19T10:22:59;97837.81;;;28.31;38.65
9822;BME280;4950;46.042;14.472;2023-06-19T10:25:28;97847.81;;;28.39;39.41
9822;BME280;4950;46.042;14.472;2023-06-19T10:27:56;97843.09;;;28.36;38.40
9822;BME280;4950;46.042;14.472;2023-06-19T10:30:24;97848.44;;;28.36;38.85
9822;BME280;4950;46.042;14.472;2023-06-19T10:32:50;97856.66;;;28.40;39.79
9822;BME280;4950;46.042;14.472;2023-06-19T10:35:18;97845.38;;;28.43;38.31
9822;BME280;4950;46.042;14.472;2023-06-19T10:37:47;97845.88;;;28.45;39.41
9822;BME280;4950;46.042;14.472;2023-06-19T10:40:15;97847.16;;;28.47;39.09
9822;BME280;4950;46.042;14.472;2023-06-19T10:42:42;97836.47;;;28.47;39.69
9822;BME280;4950;46.042;14.472;2023-06-19T10:45:10;97839.66;;;28.49;39.03
9822;BME280;4950;46.042;14.472;2023-06-19T10:47:39;97847.41;;;28.51;39.30
9822;BME280;4950;46.042;14.472;2023-06-19T10:50:10;97836.44;;;28.52;39.86
9822;BME280;4950;46.042;14.472;2023-06-19T10:52:40;97846.03;;;28.53;40.19
9822;BME280;4950;46.042;14.472;2023-06-19T10:55:07;97836.34;;;28.58;39.96
9822;BME280;4950;46.042;14.472;2023-06-19T10:57:36;97837.91;;;28.59;40.24
9822;BME280;4950;46.042;14.472;2023-06-19T11:00:03;97831.50;;;28.60;39.85
9822;BME280;4950;46.042;14.472;2023-06-19T11:02:36;97832.78;;;28.62;39.68
9822;BME280;4950;46.042;14.472;2023-06-19T11:05:05;97833.56;;;28.63;40.60
9822;BME280;4950;46.042;14.472;2023-06-19T11:07:32;97822.81;;;28.68;40.17
9822;BME280;4950;46.042;14.472;2023-06-19T11:09:59;97825.69;;;28.71;40.67
9822;BME280;4950;46.042;14.472;2023-06-19T11:12:25;97819.47;;;28.76;40.13
9822;BME280;4950;46.042;14.472;2023-06-19T11:14:53;97821.75;;;28.83;39.90
9822;BME280;4950;46.042;14.472;2023-06-19T11:17:20;97818.78;;;28.84;39.96
9822;BME280;4950;46.042;14.472;2023-06-19T11:19:47;97819.19;;;28.91;39.40
9822;BME280;4950;46.042;14.472;2023-06-19T11:22:13;97814.53;;;28.97;39.42
9822;BME280;4950;46.042;14.472;2023-06-19T11:24:44;97830.50;;;29.02;39.54
9822;BME280;4950;46.042;14.472;2023-06-19T11:27:20;97811.16;;;29.05;40.42
9822;BME280;4950;46.042;14.472;2023-06-19T11:29:56;97821.78;;;29.10;39.90
9822;BME280;4950;46.042;14.472;2023-06-19T11:32:24;97821.13;;;29.19;39.54
9822;BME280;4950;46.042;14.472;2023-06-19T11:34:56;97812.50;;;29.22;39.03
9822;BME280;4950;46.042;14.472;2023-06-19T11:37:23;97811.09;;;29.24;38.83
9822;BME280;4950;46.042;14.472;2023-06-19T11:39:50;97812.38;;;29.27;39.46
9822;BME280;4950;46.042;14.472;2023-06-19T11:42:17;97813.88;;;29.33;38.83
9822;BME280;4950;46.042;14.472;2023-06-19T11:44:53;97807.94;;;29.36;38.50
9822;BME280;4950;46.042;14.472;2023-06-19T11:47:22;97816.75;;;29.37;39.64
9822;BME280;4950;46.042;14.472;2023-06-19T11:49:50;97812.88;;;29.43;39.16
9822;BME280;4950;46.042;14.472;2023-06-19T11:52:16;97809.59;;;29.46;38.20
9822;BME280;4950;46.042;14.472;2023-06-19T11:54:43;97803.47;;;29.45;38.25
9822;BME280;4950;46.042;14.472;2023-06-19T11:57:10;97805.66;;;29.43;37.82
9822;BME280;4950;46.042;14.472;2023-06-19T11:59:38;97812.88;;;29.43;38.34
9822;BME280;4950;46.042;14.472;2023-06-19T12:02:05;97813.06;;;29.46;38.79
9822;BME280;4950;46.042;14.472;2023-06-19T12:04:33;97810.59;;;29.50;38.92
9822;BME280;4950;46.042;14.472;2023-06-19T12:07:00;97815.66;;;29.51;37.99
9822;BME280;4950;46.042;14.472;2023-06-19T12:09:29;97802.47;;;29.55;39.15
9822;BME280;4950;46.042;14.472;2023-06-19T12:11:57;97808.78;;;29.59;38.27
9822;BME280;4950;46.042;14.472;2023-06-19T12:14:23;97813.22;;;29.64;38.38
9822;BME280;4950;46.042;14.472;2023-06-19T12:16:51;97798.78;;;29.65;38.31
9822;BME280;4950;46.042;14.472;2023-06-19T12:19:18;97801.75;;;29.63;38.38
9822;BME280;4950;46.042;14.472;2023-06-19T12:21:46;97806.59;;;29.61;38.20
9822;BME280;4950;46.042;14.472;2023-06-19T12:24:13;97799.06;;;29.63;38.69
9822;BME280;4950;46.042;14.472;2023-06-19T12:26:39;97815.00;;;29.68;38.21
9822;BME280;4950;46.042;14.472;2023-06-19T12:29:07;97811.47;;;29.73;37.58
9822;BME280;4950;46.042;14.472;2023-06-19T12:31:34;97796.69;;;29.76;37.93
9822;BME280;4950;46.042;14.472;2023-06-19T12:34:01;97810.44;;;29.83;38.06
9822;BME280;4950;46.042;14.472;2023-06-19T12:36:28;97804.59;;;29.81;37.87
9822;BME280;4950;46.042;14.472;2023-06-19T12:38:59;97807.47;;;29.84;38.25
9822;BME280;4950;46.042;14.472;2023-06-19T12:41:25;97803.09;;;29.88;37.46
9822;BME280;4950;46.042;14.472;2023-06-19T12:43:52;97808.75;;;29.87;36.92
9822;BME280;4950;46.042;14.472;2023-06-19T12:46:18;97799.44;;;29.84;37.79
9822;BME280;4950;46.042;14.472;2023-06-19T12:48:46;97804.00;;;29.84;37.40
9822;BME280;4950;46.042;14.472;2023-06-19T12:51:16;97797.56;;;29.85;37.80
9822;BME280;4950;46.042;14.472;2023-06-19T12:53:43;97810.03;;;29.89;37.92
9822;BME280;4950;46.042;14.472;2023-06-19T12:56:11;97805.63;;;29.93;37.32
9822;BME280;4950;46.042;14.472;2023-06-19T12:58:38;97810.41;;;29.97;37.20
9822;BME280;4950;46.042;14.472;2023-06-19T13:01:05;97797.94;;;29.92;36.51
9822;BME280;4950;46.042;14.472;2023-06-19T13:03:31;97804.56;;;29.95;37.17
9822;BME280;4950;46.042;14.472;2023-06-19T13:05:58;97806.63;;;29.98;36.21
9822;BME280;4950;46.042;14.472;2023-06-19T13:08:24;97795.75;;;29.94;36.85
9822;BME280;4950;46.042;14.472;2023-06-19T13:10:51;97799.81;;;29.91;37.62
9822;BME280;4950;46.042;14.472;2023-06-19T13:13:19;97796.53;;;29.95;37.54